createdAt,value
2019-04-25T00:02:40.839Z,13.28
2019-04-25T00:06:05.337Z,13.49
2019-04-25T00:09:31.726Z,13.12
2019-04-25T00:12:55.036Z,13.10
2019-04-25T00:16:22.369Z,12.94
2019-04-25T00:19:46.402Z,13.37
2019-04-25T00:23:15.275Z,13.21
2019-04-25T00:26:43.992Z,13.19
2019-04-25T00:30:07.571Z,13.18
2019-04-25T00:33:31.566Z,13.26
2019-04-25T00:36:54.822Z,13.06
2019-04-25T00:40:18.330Z,13.20
2019-04-25T00:43:42.965Z,13.13
2019-04-25T00:47:06.655Z,12.90
2019-04-25T00:50:32.525Z,13.12
2019-04-25T00:53:55.742Z,12.95
2019-04-25T00:57:19.408Z,12.89
2019-04-25T01:01:02.882Z,13.15
2019-04-25T01:04:27.303Z,13.00
2019-04-25T01:07:52.147Z,13.08
2019-04-25T01:11:15.449Z,13.22
2019-04-25T01:14:38.649Z,13.04
2019-04-25T01:18:02.874Z,13.16
2019-04-25T01:21:26.030Z,13.22
2019-04-25T01:24:49.378Z,13.15
2019-04-25T01:28:13.145Z,13.03
2019-04-25T01:31:36.607Z,12.91
2019-04-25T01:35:07.100Z,12.76
2019-04-25T01:39:04.300Z,12.76
2019-04-25T01:42:41.145Z,12.56
2019-04-25T01:46:04.398Z,12.99
2019-04-25T01:49:27.792Z,12.80
2019-04-25T01:52:54.382Z,12.58
2019-04-25T01:56:17.347Z,12.99
2019-04-25T01:59:40.620Z,12.93
2019-04-25T02:03:04.854Z,12.45
2019-04-25T02:06:29.273Z,12.71
2019-04-25T02:09:54.612Z,12.96
2019-04-25T02:13:19.466Z,12.48
2019-04-25T02:16:43.974Z,12.69
2019-04-25T02:20:07.338Z,12.86
2019-04-25T02:23:34.144Z,12.46
2019-04-25T02:26:57.655Z,12.58
2019-04-25T02:30:25.415Z,12.64
2019-04-25T02:33:48.714Z,12.83
2019-04-25T02:37:14.378Z,12.30
2019-04-25T02:40:36.993Z,12.72
2019-04-25T02:44:07.638Z,12.67
2019-04-25T02:47:46.739Z,12.60
2019-04-25T02:51:16.845Z,12.54
2019-04-25T02:54:39.854Z,12.53
2019-04-25T02:58:05.638Z,12.61
2019-04-25T03:01:30.056Z,12.42
2019-04-25T03:04:54.547Z,12.62
2019-04-25T03:08:17.891Z,12.50
2019-04-25T03:11:45.044Z,12.81
2019-04-25T03:15:09.995Z,12.57
2019-04-25T03:18:34.937Z,12.29
2019-04-25T03:22:01.547Z,12.82
2019-04-25T03:25:25.375Z,12.73
2019-04-25T03:28:48.431Z,12.55
2019-04-25T03:32:14.447Z,12.79
2019-04-25T03:35:36.616Z,12.89
2019-04-25T03:39:05.073Z,12.91
2019-04-25T03:42:30.571Z,12.73
2019-04-25T03:45:53.709Z,12.99
2019-04-25T03:49:17.744Z,12.68
2019-04-25T03:52:40.906Z,12.85
2019-04-25T03:56:05.841Z,12.89
2019-04-25T03:59:30.129Z,13.00
2019-04-25T04:02:53.848Z,13.00
2019-04-25T04:06:18.133Z,13.06
2019-04-25T04:09:41.549Z,13.01
2019-04-25T04:13:06.267Z,13.00
2019-04-25T04:16:36.041Z,12.78
2019-04-25T04:20:17.974Z,12.76
2019-04-25T04:24:00.906Z,12.77
2019-04-25T04:27:24.069Z,12.68
2019-04-25T04:30:47.498Z,12.66
2019-04-25T04:34:10.668Z,12.66
2019-04-25T04:37:33.823Z,12.81
2019-04-25T04:40:56.855Z,13.03
2019-04-25T04:44:20.430Z,12.89
2019-04-25T04:47:43.580Z,12.90
2019-04-25T04:51:06.676Z,13.13
2019-04-25T04:54:30.513Z,13.01
2019-04-25T04:57:54.255Z,12.94
2019-04-25T05:01:19.314Z,13.31
2019-04-25T05:05:05.191Z,13.18
2019-04-25T05:08:34.192Z,13.30
2019-04-25T05:12:08.022Z,13.24
2019-04-25T05:15:31.167Z,12.97
2019-04-25T05:18:55.368Z,13.28
2019-04-25T05:22:18.631Z,13.42
2019-04-25T05:25:41.742Z,13.25
2019-04-25T05:29:04.767Z,13.39
2019-04-25T05:32:27.839Z,13.45
2019-04-25T05:35:51.810Z,13.56
2019-04-25T05:39:17.339Z,13.81
2019-04-25T05:43:05.611Z,13.72
2019-04-25T05:46:31.684Z,13.85
2019-04-25T05:49:55.079Z,13.78
2019-04-25T05:53:18.100Z,13.81
2019-04-25T05:56:41.137Z,13.87
2019-04-25T06:00:04.970Z,14.01
2019-04-25T06:03:31.262Z,14.10
2019-04-25T06:06:55.219Z,13.92
2019-04-25T06:10:41.061Z,14.07
2019-04-25T06:14:07.035Z,14.34
2019-04-25T06:17:53.407Z,14.62
2019-04-25T06:21:17.326Z,14.48
2019-04-25T06:24:45.690Z,14.86
2019-04-25T06:28:11.683Z,14.98
2019-04-25T06:31:34.830Z,15.01
2019-04-25T06:35:00.141Z,15.52
2019-04-25T06:38:26.064Z,15.32
2019-04-25T06:41:49.995Z,15.46
2019-04-25T06:45:37.827Z,15.68
2019-04-25T06:49:13.331Z,14.93
2019-04-25T06:52:36.817Z,15.18
2019-04-25T06:56:03.523Z,15.34
2019-04-25T06:59:27.907Z,15.42
2019-04-25T07:02:53.144Z,15.37
2019-04-25T07:06:16.507Z,15.61
2019-04-25T07:09:39.945Z,15.21
2019-04-25T07:13:04.303Z,15.63
2019-04-25T07:16:27.701Z,15.63
2019-04-25T07:19:54.149Z,15.49
2019-04-25T07:23:17.354Z,16.40
2019-04-25T07:27:00.105Z,16.68
2019-04-25T07:30:50.182Z,16.54
2019-04-25T07:34:14.202Z,16.34
2019-04-25T07:37:41.574Z,15.86
2019-04-25T07:41:03.569Z,16.15
2019-04-25T07:44:38.163Z,16.44
2019-04-25T07:47:53.993Z,16.00
2019-04-25T07:51:17.329Z,15.89
2019-04-25T07:54:40.378Z,16.03
2019-04-25T07:58:03.577Z,16.13
2019-04-25T08:01:26.891Z,16.59
2019-04-25T08:04:51.255Z,16.44
2019-04-25T08:08:14.421Z,16.21
2019-04-25T08:11:38.300Z,16.43
2019-04-25T08:15:09.242Z,16.64
2019-04-25T08:18:32.925Z,17.02
2019-04-25T08:21:57.354Z,16.83
2019-04-25T08:25:21.145Z,16.75
2019-04-25T08:28:54.335Z,17.07
2019-04-25T08:32:10.269Z,16.84
2019-04-25T08:35:35.215Z,16.96
2019-04-25T08:39:00.910Z,16.97
2019-04-25T08:42:24.669Z,16.90
2019-04-25T08:45:51.296Z,16.91
2019-04-25T08:49:23.974Z,17.16
2019-04-25T08:52:47.212Z,17.61
2019-04-25T08:56:15.782Z,17.78
2019-04-25T08:59:52.235Z,17.84
2019-04-25T09:03:17.290Z,17.94
2019-04-25T09:06:40.432Z,18.25
2019-04-25T09:10:03.982Z,18.02
2019-04-25T09:13:29.049Z,18.04
2019-04-25T09:16:53.371Z,18.12
2019-04-25T09:20:17.052Z,17.70
2019-04-25T09:23:41.576Z,18.63
2019-04-25T09:27:04.714Z,18.42
2019-04-25T09:30:30.589Z,18.18
2019-04-25T09:33:55.760Z,18.87
2019-04-25T09:37:18.946Z,18.30
2019-04-25T09:40:42.224Z,17.88
2019-04-25T09:44:07.350Z,19.12
2019-04-25T09:47:35.592Z,19.54
2019-04-25T09:51:08.447Z,20.12
2019-04-25T09:54:38.082Z,20.31
2019-04-25T09:58:08.576Z,19.45
2019-04-25T10:01:31.787Z,19.73
2019-04-25T10:04:55.239Z,20.59
2019-04-25T10:08:19.711Z,19.33
2019-04-25T10:11:43.980Z,19.96
2019-04-25T10:15:50.373Z,19.76
2019-04-25T10:19:13.624Z,20.18
2019-04-25T10:22:36.764Z,20.28
2019-04-25T10:26:03.868Z,20.66
2019-04-25T10:29:39.139Z,20.13
2019-04-25T10:32:53.183Z,19.38
2019-04-25T10:36:16.820Z,20.09
2019-04-25T10:39:40.115Z,19.54
2019-04-25T10:43:04.462Z,19.09
2019-04-25T10:46:27.526Z,19.56
2019-04-25T10:49:50.640Z,19.99
2019-04-25T10:53:13.948Z,19.81
2019-04-25T10:56:37.154Z,20.13
2019-04-25T11:00:07.607Z,21.05
2019-04-25T11:03:49.428Z,21.87
2019-04-25T11:07:13.649Z,22.62
2019-04-25T11:10:37.030Z,22.34
2019-04-25T11:14:03.294Z,22.24
2019-04-25T11:17:26.762Z,23.00
2019-04-25T11:20:50.388Z,23.43
2019-04-25T11:24:14.291Z,23.13
2019-04-25T11:27:37.834Z,23.04
2019-04-25T11:31:02.064Z,22.57
2019-04-25T11:34:25.522Z,22.37
2019-04-25T11:37:50.623Z,22.95
2019-04-25T11:41:15.298Z,23.57
2019-04-25T11:44:38.372Z,22.44
2019-04-25T11:48:02.018Z,22.91
2019-04-25T11:51:26.354Z,24.07
2019-04-25T11:54:50.051Z,25.75
2019-04-25T11:58:14.288Z,27.63
2019-04-25T12:01:37.817Z,26.83
2019-04-25T12:05:00.933Z,27.11
2019-04-25T12:08:24.336Z,27.19
2019-04-25T12:11:48.572Z,27.39
2019-04-25T12:15:13.248Z,27.37
2019-04-25T12:18:37.276Z,28.48
2019-04-25T12:22:04.024Z,28.65
2019-04-25T12:25:27.513Z,28.06
2019-04-25T12:28:51.434Z,27.62
2019-04-25T12:32:14.846Z,27.60
2019-04-25T12:35:38.700Z,27.49
2019-04-25T12:39:03.399Z,27.63
2019-04-25T12:42:31.581Z,26.77
2019-04-25T12:46:02.970Z,28.14
2019-04-25T12:49:25.989Z,29.08
2019-04-25T12:52:49.219Z,29.78
2019-04-25T12:56:12.692Z,30.14
2019-04-25T12:59:35.759Z,31.36
2019-04-25T13:03:00.290Z,30.25
2019-04-25T13:06:23.874Z,29.32
2019-04-25T13:09:48.300Z,29.74
2019-04-25T13:13:14.634Z,28.11
2019-04-25T13:16:37.154Z,28.66
2019-04-25T13:20:01.652Z,30.07
2019-04-25T13:23:26.176Z,29.63
2019-04-25T13:26:56.948Z,30.01
2019-04-25T13:30:43.148Z,29.70
2019-04-25T13:34:14.157Z,31.09
2019-04-25T13:37:37.441Z,28.18
2019-04-25T13:41:04.088Z,26.48
2019-04-25T13:44:27.581Z,27.03
2019-04-25T13:47:50.896Z,27.06
2019-04-25T13:51:14.238Z,26.05
2019-04-25T13:54:37.521Z,26.45
2019-04-25T13:58:00.877Z,26.87
2019-04-25T14:01:24.687Z,27.14
2019-04-25T14:04:48.852Z,27.26
2019-04-25T14:08:13.443Z,27.16
2019-04-25T14:11:38.040Z,27.03
2019-04-25T14:15:03.822Z,26.31
2019-04-25T14:18:50.282Z,25.95
2019-04-25T14:22:16.609Z,25.37
2019-04-25T14:25:39.665Z,25.48
2019-04-25T14:29:04.230Z,25.22
2019-04-25T14:32:28.896Z,25.01
2019-04-25T14:35:53.334Z,25.13
2019-04-25T14:39:17.991Z,25.49
2019-04-25T14:42:41.013Z,24.82
2019-04-25T14:46:04.344Z,24.43
2019-04-25T14:49:28.301Z,24.32
2019-04-25T14:52:51.598Z,23.60
2019-04-25T14:56:43.386Z,23.74
2019-04-25T15:00:12.978Z,23.42
2019-04-25T15:03:36.514Z,23.50
2019-04-25T15:07:01.998Z,23.18
2019-04-25T15:10:25.139Z,23.40
2019-04-25T15:13:48.955Z,23.47
2019-04-25T15:17:12.499Z,23.62
2019-04-25T15:20:35.570Z,23.56
2019-04-25T15:24:00.604Z,23.23
2019-04-25T15:27:24.118Z,23.11
2019-04-25T15:30:49.126Z,23.13
2019-04-25T15:34:12.411Z,23.48
2019-04-25T15:37:51.151Z,23.88
2019-04-25T15:41:21.641Z,23.89
2019-04-25T15:44:47.490Z,23.80
2019-04-25T15:48:10.705Z,23.09
2019-04-25T15:51:33.759Z,23.24
2019-04-25T15:55:06.436Z,23.16
2019-04-25T15:58:21.814Z,22.46
2019-04-25T16:01:45.363Z,22.61
2019-04-25T16:05:09.077Z,22.44
2019-04-25T16:08:33.001Z,22.21
2019-04-25T16:11:56.203Z,22.54
2019-04-25T16:15:19.441Z,22.57
2019-04-25T16:18:43.721Z,22.05
2019-04-25T16:22:07.185Z,22.26
2019-04-25T16:25:33.290Z,22.27
2019-04-25T16:28:57.036Z,22.13
2019-04-25T16:32:21.986Z,21.87
2019-04-25T16:35:45.001Z,22.29
2019-04-25T16:39:10.170Z,22.23
2019-04-25T16:42:35.917Z,22.44
2019-04-25T16:46:02.147Z,22.01
2019-04-25T16:49:25.389Z,21.46
2019-04-25T16:52:48.567Z,21.59
2019-04-25T16:56:12.028Z,21.54
2019-04-25T16:59:35.594Z,21.33
2019-04-25T17:03:01.679Z,21.26
2019-04-25T17:06:24.938Z,20.90
2019-04-25T17:09:47.948Z,20.91
2019-04-25T17:13:11.158Z,20.97
2019-04-25T17:17:01.781Z,20.50
2019-04-25T17:20:30.667Z,20.62
2019-04-25T17:23:59.653Z,20.73
2019-04-25T17:27:22.968Z,20.78
2019-04-25T17:30:48.621Z,20.68
2019-04-25T17:34:21.495Z,20.63
2019-04-25T17:37:49.448Z,20.04
2019-04-25T17:41:12.605Z,20.59
2019-04-25T17:44:36.347Z,20.30
2019-04-25T17:48:02.145Z,20.03
2019-04-25T17:51:25.356Z,19.76
2019-04-25T17:54:48.780Z,19.38
2019-04-25T17:58:11.840Z,19.38
2019-04-25T18:01:35.808Z,19.13
2019-04-25T18:05:01.374Z,18.64
2019-04-25T18:08:25.117Z,18.94
2019-04-25T18:11:48.156Z,19.26
2019-04-25T18:15:13.135Z,19.07
2019-04-25T18:18:45.971Z,19.24
2019-04-25T18:22:27.614Z,19.16
2019-04-25T18:26:22.515Z,19.33
2019-04-25T18:29:46.319Z,19.22
2019-04-25T18:33:29.088Z,18.89
2019-04-25T18:37:03.071Z,18.90
2019-04-25T18:40:52.238Z,19.10
2019-04-25T18:44:16.398Z,18.23
2019-04-25T18:47:40.356Z,18.31
2019-04-25T18:51:03.736Z,18.60
2019-04-25T18:55:01.635Z,18.17
2019-04-25T18:58:46.389Z,17.86
2019-04-25T19:02:29.819Z,17.07
2019-04-25T19:06:01.447Z,16.74
2019-04-25T19:09:24.636Z,15.76
2019-04-25T19:12:47.712Z,15.62
2019-04-25T19:16:10.799Z,15.78
2019-04-25T19:19:33.878Z,15.51
2019-04-25T19:22:56.984Z,15.60
2019-04-25T19:26:20.054Z,15.82
2019-04-25T19:29:43.927Z,15.06
2019-04-25T19:33:07.742Z,14.83
2019-04-25T19:36:32.220Z,15.16
2019-04-25T19:40:23.703Z,15.54
2019-04-25T19:44:10.702Z,15.67
2019-04-25T19:47:33.844Z,15.71
2019-04-25T19:50:57.075Z,15.98
2019-04-25T19:54:20.199Z,15.92
2019-04-25T19:57:43.845Z,15.97
2019-04-25T20:01:07.637Z,15.95
2019-04-25T20:04:41.824Z,15.86
2019-04-25T20:08:16.099Z,15.80
2019-04-25T20:11:47.071Z,14.67
2019-04-25T20:15:10.500Z,15.02
2019-04-25T20:18:34.587Z,15.12
2019-04-25T20:22:02.462Z,15.18
2019-04-25T20:25:26.772Z,15.39
2019-04-25T20:28:51.254Z,15.40
2019-04-25T20:32:14.509Z,14.87
2019-04-25T20:35:37.726Z,14.24
2019-04-25T20:39:00.995Z,14.81
2019-04-25T20:42:26.355Z,15.15
2019-04-25T20:45:50.241Z,15.03
2019-04-25T20:49:14.083Z,15.08
2019-04-25T20:52:38.191Z,15.19
2019-04-25T20:56:02.282Z,15.18
2019-04-25T20:59:34.721Z,15.25
2019-04-25T21:03:00.196Z,15.00
2019-04-25T21:06:29.510Z,15.06
2019-04-25T21:09:53.247Z,14.90
2019-04-25T21:13:23.546Z,14.56
2019-04-25T21:16:59.287Z,14.95
2019-04-25T21:20:22.473Z,15.01
2019-04-25T21:23:45.715Z,14.66
2019-04-25T21:27:09.142Z,14.69
2019-04-25T21:30:32.850Z,14.81
2019-04-25T21:33:56.273Z,14.96
2019-04-25T21:37:22.593Z,15.11
2019-04-25T21:41:05.705Z,14.94
2019-04-25T21:44:31.938Z,15.23
2019-04-25T21:47:55.079Z,14.77
2019-04-25T21:51:31.360Z,15.02
2019-04-25T21:54:55.839Z,14.88
2019-04-25T21:58:19.269Z,14.77
2019-04-25T22:01:43.536Z,14.75
2019-04-25T22:05:07.135Z,14.71
2019-04-25T22:08:30.598Z,14.88
2019-04-25T22:11:54.757Z,14.72
2019-04-25T22:15:19.021Z,14.88
2019-04-25T22:18:42.395Z,14.53
2019-04-25T22:22:06.785Z,14.04
2019-04-25T22:25:32.041Z,14.32
2019-04-25T22:28:55.461Z,14.30
2019-04-25T22:32:53.536Z,14.55
2019-04-25T22:36:21.243Z,14.54
2019-04-25T22:39:44.284Z,14.36
2019-04-25T22:43:10.399Z,14.50
2019-04-25T22:46:33.952Z,14.47
2019-04-25T22:49:57.226Z,14.58
2019-04-25T22:53:22.732Z,14.50
2019-04-25T22:56:45.895Z,14.53
2019-04-25T23:00:12.857Z,14.27
2019-04-25T23:03:42.224Z,14.48
2019-04-25T23:07:05.967Z,14.58
2019-04-25T23:10:31.214Z,14.54
2019-04-25T23:13:54.306Z,14.72
2019-04-25T23:17:18.170Z,14.51
2019-04-25T23:20:41.578Z,14.59
2019-04-25T23:24:05.532Z,14.62
2019-04-25T23:28:06.410Z,14.68
2019-04-25T23:31:33.917Z,14.60
2019-04-25T23:34:57.349Z,14.54
2019-04-25T23:38:20.651Z,14.69
2019-04-25T23:41:43.727Z,14.74
2019-04-25T23:45:08.115Z,14.80
2019-04-25T23:48:31.290Z,14.65
2019-04-25T23:51:54.644Z,14.43
2019-04-25T23:55:18.064Z,14.50
2019-04-25T23:58:41.161Z,14.56
